sensor_id;sensor_type;location;lat;lon;timestamp;temperature;humidity
13833;DHT22;6987;19.472;-99.276;2023-11-21T00:01:24;17.80;99.90
13833;DHT22;6987;19.472;-99.276;2023-11-21T00:03:53;17.70;99.90
13833;DHT22;6987;19.472;-99.276;2023-11-21T00:06:24;17.70;99.90
13833;DHT22;6987;19.472;-99.276;2023-11-21T00:08:53;17.60;99.90
13833;DHT22;6987;19.472;-99.276;2023-11-21T00:11:23;17.60;99.90
13833;DHT22;6987;19.472;-99.276;2023-11-21T00:13:52;17.60;99.90
13833;DHT22;6987;19.472;-99.276;2023-11-21T00:16:21;17.50;99.90
13833;DHT22;6987;19.472;-99.276;2023-11-21T00:18:52;17.50;99.90
13833;DHT22;6987;19.472;-99.276;2023-11-21T00:21:23;17.50;99.90
13833;DHT22;6987;19.472;-99.276;2023-11-21T00:23:52;17.50;99.90
13833;DHT22;6987;19.472;-99.276;2023-11-21T00:26:21;17.50;99.90
13833;DHT22;6987;19.472;-99.276;2023-11-21T00:28:51;17.40;99.90
13833;DHT22;6987;19.472;-99.276;2023-11-21T00:31:20;17.40;99.90
13833;DHT22;6987;19.472;-99.276;2023-11-21T00:33:50;17.30;99.90
13833;DHT22;6987;19.472;-99.276;2023-11-21T00:36:19;17.30;99.90
13833;DHT22;6987;19.472;-99.276;2023-11-21T00:38:50;17.20;99.90
13833;DHT22;6987;19.472;-99.276;2023-11-21T00:41:19;17.20;99.90
13833;DHT22;6987;19.472;-99.276;2023-11-21T00:43:48;17.20;99.90
13833;DHT22;6987;19.472;-99.276;2023-11-21T00:46:18;17.10;99.90
13833;DHT22;6987;19.472;-99.276;2023-11-21T00:48:47;17.10;99.90
13833;DHT22;6987;19.472;-99.276;2023-11-21T00:51:16;17.10;99.90
13833;DHT22;6987;19.472;-99.276;2023-11-21T00:53:45;17.10;99.90
13833;DHT22;6987;19.472;-99.276;2023-11-21T00:56:16;17.10;99.90
13833;DHT22;6987;19.472;-99.276;2023-11-21T00:58:45;17.10;99.90
13833;DHT22;6987;19.472;-99.276;2023-11-21T01:01:17;17.00;99.90
13833;DHT22;6987;19.472;-99.276;2023-11-21T01:03:47;17.00;99.90
13833;DHT22;6987;19.472;-99.276;2023-11-21T01:06:16;17.00;99.90
13833;DHT22;6987;19.472;-99.276;2023-11-21T01:08:46;16.90;99.90
13833;DHT22;6987;19.472;-99.276;2023-11-21T01:11:17;16.90;99.90
13833;DHT22;6987;19.472;-99.276;2023-11-21T01:13:46;16.90;99.90
13833;DHT22;6987;19.472;-99.276;2023-11-21T01:16:16;16.80;99.90
13833;DHT22;6987;19.472;-99.276;2023-11-21T01:18:45;16.80;99.90
13833;DHT22;6987;19.472;-99.276;2023-11-21T01:21:14;16.80;99.90
13833;DHT22;6987;19.472;-99.276;2023-11-21T01:23:43;16.70;99.90
13833;DHT22;6987;19.472;-99.276;2023-11-21T01:26:12;16.70;99.90
13833;DHT22;6987;19.472;-99.276;2023-11-21T01:28:44;16.70;99.90
13833;DHT22;6987;19.472;-99.276;2023-11-21T01:31:15;16.60;99.90
13833;DHT22;6987;19.472;-99.276;2023-11-21T01:33:45;16.50;99.90
13833;DHT22;6987;19.472;-99.276;2023-11-21T01:36:15;16.50;99.90
13833;DHT22;6987;19.472;-99.276;2023-11-21T01:38:44;16.50;99.90
13833;DHT22;6987;19.472;-99.276;2023-11-21T01:41:14;16.40;99.90
13833;DHT22;6987;19.472;-99.276;2023-11-21T01:43:46;16.40;99.90
13833;DHT22;6987;19.472;-99.276;2023-11-21T01:46:15;16.30;99.90
13833;DHT22;6987;19.472;-99.276;2023-11-21T01:48:44;16.30;99.90
13833;DHT22;6987;19.472;-99.276;2023-11-21T01:51:13;16.20;99.90
13833;DHT22;6987;19.472;-99.276;2023-11-21T01:53:43;16.20;99.90
13833;DHT22;6987;19.472;-99.276;2023-11-21T01:56:13;16.10;99.90
13833;DHT22;6987;19.472;-99.276;2023-11-21T01:58:45;16.10;99.90
13833;DHT22;6987;19.472;-99.276;2023-11-21T02:01:15;16.10;99.90
13833;DHT22;6987;19.472;-99.276;2023-11-21T02:03:45;16.00;99.90
13833;DHT22;6987;19.472;-99.276;2023-11-21T02:06:15;16.00;99.90
13833;DHT22;6987;19.472;-99.276;2023-11-21T02:08:45;16.00;99.90
13833;DHT22;6987;19.472;-99.276;2023-11-21T02:11:14;15.90;99.90
13833;DHT22;6987;19.472;-99.276;2023-11-21T02:13:45;15.90;99.90
13833;DHT22;6987;19.472;-99.276;2023-11-21T02:16:17;15.90;99.90
13833;DHT22;6987;19.472;-99.276;2023-11-21T02:18:46;15.90;99.90
13833;DHT22;6987;19.472;-99.276;2023-11-21T02:21:16;16.00;99.90
13833;DHT22;6987;19.472;-99.276;2023-11-21T02:23:47;15.90;99.90
13833;DHT22;6987;19.472;-99.276;2023-11-21T02:26:18;16.00;99.90
13833;DHT22;6987;19.472;-99.276;2023-11-21T02:28:47;16.00;99.90
13833;DHT22;6987;19.472;-99.276;2023-11-21T02:31:16;15.90;99.90
13833;DHT22;6987;19.472;-99.276;2023-11-21T02:33:45;15.90;99.90
13833;DHT22;6987;19.472;-99.276;2023-11-21T02:36:15;15.90;99.90
13833;DHT22;6987;19.472;-99.276;2023-11-21T02:38:44;15.90;99.90
13833;DHT22;6987;19.472;-99.276;2023-11-21T02:41:15;16.00;99.90
13833;DHT22;6987;19.472;-99.276;2023-11-21T02:43:44;16.00;99.90
13833;DHT22;6987;19.472;-99.276;2023-11-21T02:46:13;16.00;99.90
13833;DHT22;6987;19.472;-99.276;2023-11-21T02:48:42;16.00;99.90
13833;DHT22;6987;19.472;-99.276;2023-11-21T02:51:11;16.00;99.90
13833;DHT22;6987;19.472;-99.276;2023-11-21T02:53:42;16.00;99.90
13833;DHT22;6987;19.472;-99.276;2023-11-21T02:56:15;15.90;99.90
13833;DHT22;6987;19.472;-99.276;2023-11-21T02:58:44;15.90;99.90
13833;DHT22;6987;19.472;-99.276;2023-11-21T03:01:13;15.90;99.90
13833;DHT22;6987;19.472;-99.276;2023-11-21T03:03:42;15.80;99.90
13833;DHT22;6987;19.472;-99.276;2023-11-21T03:06:11;15.80;99.90
13833;DHT22;6987;19.472;-99.276;2023-11-21T03:08:41;15.80;99.90
13833;DHT22;6987;19.472;-99.276;2023-11-21T03:11:10;15.80;99.90
13833;DHT22;6987;19.472;-99.276;2023-11-21T03:13:41;15.80;99.90
13833;DHT22;6987;19.472;-99.276;2023-11-21T03:16:10;15.80;99.90
13833;DHT22;6987;19.472;-99.276;2023-11-21T03:18:40;15.80;99.90
13833;DHT22;6987;19.472;-99.276;2023-11-21T03:21:09;15.70;99.90
13833;DHT22;6987;19.472;-99.276;2023-11-21T03:23:38;16.10;99.90
13833;DHT22;6987;19.472;-99.276;2023-11-21T03:26:12;15.70;99.90
13833;DHT22;6987;19.472;-99.276;2023-11-21T03:28:43;15.70;99.90
13833;DHT22;6987;19.472;-99.276;2023-11-21T03:31:13;15.70;99.90
13833;DHT22;6987;19.472;-99.276;2023-11-21T03:33:43;15.60;99.90
13833;DHT22;6987;19.472;-99.276;2023-11-21T03:36:12;15.50;99.90
13833;DHT22;6987;19.472;-99.276;2023-11-21T03:38:42;15.60;99.90
13833;DHT22;6987;19.472;-99.276;2023-11-21T03:41:11;15.50;99.90
13833;DHT22;6987;19.472;-99.276;2023-11-21T03:43:43;15.50;99.90
13833;DHT22;6987;19.472;-99.276;2023-11-21T03:46:12;15.50;99.90
13833;DHT22;6987;19.472;-99.276;2023-11-21T03:48:41;15.50;99.90
13833;DHT22;6987;19.472;-99.276;2023-11-21T03:51:10;15.40;99.90
13833;DHT22;6987;19.472;-99.276;2023-11-21T03:53:39;15.40;99.90
13833;DHT22;6987;19.472;-99.276;2023-11-21T03:56:09;15.40;99.90
13833;DHT22;6987;19.472;-99.276;2023-11-21T03:58:38;15.40;99.90
13833;DHT22;6987;19.472;-99.276;2023-11-21T04:01:10;15.30;99.90
13833;DHT22;6987;19.472;-99.276;2023-11-21T04:03:39;15.30;99.90
13833;DHT22;6987;19.472;-99.276;2023-11-21T04:06:08;15.30;99.90
13833;DHT22;6987;19.472;-99.276;2023-11-21T04:08:37;15.20;99.90
13833;DHT22;6987;19.472;-99.276;2023-11-21T04:11:07;15.20;99.90
13833;DHT22;6987;19.472;-99.276;2023-11-21T04:13:38;15.20;99.90
13833;DHT22;6987;19.472;-99.276;2023-11-21T04:16:10;15.10;99.90
13833;DHT22;6987;19.472;-99.276;2023-11-21T04:18:39;15.10;99.90
13833;DHT22;6987;19.472;-99.276;2023-11-21T04:21:09;15.10;99.90
13833;DHT22;6987;19.472;-99.276;2023-11-21T04:23:38;15.00;99.90
13833;DHT22;6987;19.472;-99.276;2023-11-21T04:26:08;15.00;99.90
13833;DHT22;6987;19.472;-99.276;2023-11-21T04:28:37;15.00;99.90
13833;DHT22;6987;19.472;-99.276;2023-11-21T04:31:08;14.90;99.90
13833;DHT22;6987;19.472;-99.276;2023-11-21T04:33:37;14.90;99.90
13833;DHT22;6987;19.472;-99.276;2023-11-21T04:36:07;14.90;99.90
13833;DHT22;6987;19.472;-99.276;2023-11-21T04:38:37;14.80;99.90
13833;DHT22;6987;19.472;-99.276;2023-11-21T04:41:07;14.80;99.90
13833;DHT22;6987;19.472;-99.276;2023-11-21T04:43:36;14.80;99.90
13833;DHT22;6987;19.472;-99.276;2023-11-21T04:46:06;14.80;99.90
13833;DHT22;6987;19.472;-99.276;2023-11-21T04:48:37;14.70;99.90
13833;DHT22;6987;19.472;-99.276;2023-11-21T04:51:06;14.70;99.90
13833;DHT22;6987;19.472;-99.276;2023-11-21T04:53:35;14.70;99.90
13833;DHT22;6987;19.472;-99.276;2023-11-21T04:56:06;14.70;99.90
13833;DHT22;6987;19.472;-99.276;2023-11-21T04:58:36;14.60;99.90
13833;DHT22;6987;19.472;-99.276;2023-11-21T05:01:08;14.60;99.90
13833;DHT22;6987;19.472;-99.276;2023-11-21T05:03:38;14.50;99.90
13833;DHT22;6987;19.472;-99.276;2023-11-21T05:06:10;14.60;99.90
13833;DHT22;6987;19.472;-99.276;2023-11-21T05:08:39;14.60;99.90
13833;DHT22;6987;19.472;-99.276;2023-11-21T05:11:09;14.50;99.90
13833;DHT22;6987;19.472;-99.276;2023-11-21T05:13:39;14.50;99.90
13833;DHT22;6987;19.472;-99.276;2023-11-21T05:16:08;14.50;99.90
13833;DHT22;6987;19.472;-99.276;2023-11-21T05:18:39;14.50;99.90
13833;DHT22;6987;19.472;-99.276;2023-11-21T05:21:08;14.40;99.90
13833;DHT22;6987;19.472;-99.276;2023-11-21T05:23:37;14.40;99.90
13833;DHT22;6987;19.472;-99.276;2023-11-21T05:26:07;14.40;99.90
13833;DHT22;6987;19.472;-99.276;2023-11-21T05:28:36;14.40;99.90
13833;DHT22;6987;19.472;-99.276;2023-11-21T05:31:05;14.40;99.90
13833;DHT22;6987;19.472;-99.276;2023-11-21T05:33:34;14.50;99.90
13833;DHT22;6987;19.472;-99.276;2023-11-21T05:36:06;14.50;99.90
13833;DHT22;6987;19.472;-99.276;2023-11-21T05:38:37;14.50;99.90
13833;DHT22;6987;19.472;-99.276;2023-11-21T05:41:06;14.50;99.90
13833;DHT22;6987;19.472;-99.276;2023-11-21T05:43:37;14.60;99.90
13833;DHT22;6987;19.472;-99.276;2023-11-21T05:46:07;14.50;99.90
13833;DHT22;6987;19.472;-99.276;2023-11-21T05:48:36;14.50;99.90
13833;DHT22;6987;19.472;-99.276;2023-11-21T05:51:07;14.50;99.90
13833;DHT22;6987;19.472;-99.276;2023-11-21T05:53:39;14.50;99.90
13833;DHT22;6987;19.472;-99.276;2023-11-21T05:56:09;14.50;99.90
13833;DHT22;6987;19.472;-99.276;2023-11-21T05:58:38;14.50;99.90
13833;DHT22;6987;19.472;-99.276;2023-11-21T06:01:08;14.50;99.90
13833;DHT22;6987;19.472;-99.276;2023-11-21T06:03:40;14.40;99.90
13833;DHT22;6987;19.472;-99.276;2023-11-21T06:06:17;14.30;99.90
13833;DHT22;6987;19.472;-99.276;2023-11-21T06:08:49;14.30;99.90
13833;DHT22;6987;19.472;-99.276;2023-11-21T06:11:18;14.30;99.90
13833;DHT22;6987;19.472;-99.276;2023-11-21T06:13:48;14.30;99.90
13833;DHT22;6987;19.472;-99.276;2023-11-21T06:16:17;14.30;99.90
13833;DHT22;6987;19.472;-99.276;2023-11-21T06:18:46;14.30;99.90
13833;DHT22;6987;19.472;-99.276;2023-11-21T06:21:17;14.20;99.90
13833;DHT22;6987;19.472;-99.276;2023-11-21T06:23:47;14.20;99.90
13833;DHT22;6987;19.472;-99.276;2023-11-21T06:26:16;14.20;99.90
13833;DHT22;6987;19.472;-99.276;2023-11-21T06:28:45;14.10;99.90
13833;DHT22;6987;19.472;-99.276;2023-11-21T06:31:14;14.10;99.90
13833;DHT22;6987;19.472;-99.276;2023-11-21T06:33:44;14.10;99.90
13833;DHT22;6987;19.472;-99.276;2023-11-21T06:36:13;14.00;99.90
13833;DHT22;6987;19.472;-99.276;2023-11-21T06:38:44;14.00;99.90
13833;DHT22;6987;19.472;-99.276;2023-11-21T06:41:14;14.00;99.90
13833;DHT22;6987;19.472;-99.276;2023-11-21T06:43:44;14.10;99.90
13833;DHT22;6987;19.472;-99.276;2023-11-21T06:46:14;14.10;99.90
13833;DHT22;6987;19.472;-99.276;2023-11-21T06:48:43;14.00;99.90
13833;DHT22;6987;19.472;-99.276;2023-11-21T06:51:12;14.00;99.90
13833;DHT22;6987;19.472;-99.276;2023-11-21T06:53:43;14.00;99.90
13833;DHT22;6987;19.472;-99.276;2023-11-21T06:56:19;14.00;99.90
13833;DHT22;6987;19.472;-99.276;2023-11-21T06:58:48;13.90;99.90
13833;DHT22;6987;19.472;-99.276;2023-11-21T07:01:20;13.80;99.90
13833;DHT22;6987;19.472;-99.276;2023-11-21T07:03:50;13.90;99.90
13833;DHT22;6987;19.472;-99.276;2023-11-21T07:06:19;13.90;99.90
13833;DHT22;6987;19.472;-99.276;2023-11-21T07:08:50;13.90;99.90
13833;DHT22;6987;19.472;-99.276;2023-11-21T07:11:19;13.90;99.90
13833;DHT22;6987;19.472;-99.276;2023-11-21T07:13:49;13.90;99.90
13833;DHT22;6987;19.472;-99.276;2023-11-21T07:16:18;13.50;99.90
13833;DHT22;6987;19.472;-99.276;2023-11-21T07:18:49;13.80;99.90
13833;DHT22;6987;19.472;-99.276;2023-11-21T07:21:18;13.80;99.90
13833;DHT22;6987;19.472;-99.276;2023-11-21T07:23:49;13.80;99.90
13833;DHT22;6987;19.472;-99.276;2023-11-21T07:26:18;13.80;99.90
13833;DHT22;6987;19.472;-99.276;2023-11-21T07:28:47;13.80;99.90
13833;DHT22;6987;19.472;-99.276;2023-11-21T07:31:17;13.80;99.90
13833;DHT22;6987;19.472;-99.276;2023-11-21T07:33:46;13.70;99.90
13833;DHT22;6987;19.472;-99.276;2023-11-21T07:36:16;13.70;99.90
13833;DHT22;6987;19.472;-99.276;2023-11-21T07:38:45;13.70;99.90
13833;DHT22;6987;19.472;-99.276;2023-11-21T07:41:17;13.70;99.90
13833;DHT22;6987;19.472;-99.276;2023-11-21T07:43:46;13.60;99.90
13833;DHT22;6987;19.472;-99.276;2023-11-21T07:46:15;13.50;99.90
13833;DHT22;6987;19.472;-99.276;2023-11-21T07:48:45;13.50;99.90
13833;DHT22;6987;19.472;-99.276;2023-11-21T07:51:14;13.50;99.90
13833;DHT22;6987;19.472;-99.276;2023-11-21T07:53:43;13.60;99.90
13833;DHT22;6987;19.472;-99.276;2023-11-21T07:56:12;13.50;99.90
13833;DHT22;6987;19.472;-99.276;2023-11-21T07:58:43;13.40;99.90
13833;DHT22;6987;19.472;-99.276;2023-11-21T08:01:13;13.40;99.90
13833;DHT22;6987;19.472;-99.276;2023-11-21T08:03:42;13.40;99.90
13833;DHT22;6987;19.472;-99.276;2023-11-21T08:06:11;13.40;99.90
13833;DHT22;6987;19.472;-99.276;2023-11-21T08:08:40;13.50;99.90
13833;DHT22;6987;19.472;-99.276;2023-11-21T08:11:09;13.50;99.90
13833;DHT22;6987;19.472;-99.276;2023-11-21T08:13:39;13.50;99.90
13833;DHT22;6987;19.472;-99.276;2023-11-21T08:16:10;13.60;99.90
13833;DHT22;6987;19.472;-99.276;2023-11-21T08:18:39;13.60;99.90
13833;DHT22;6987;19.472;-99.276;2023-11-21T08:21:13;13.60;99.90
13833;DHT22;6987;19.472;-99.276;2023-11-21T08:23:42;13.60;99.90
13833;DHT22;6987;19.472;-99.276;2023-11-21T08:26:11;13.60;99.90
13833;DHT22;6987;19.472;-99.276;2023-11-21T08:28:41;13.50;99.90
13833;DHT22;6987;19.472;-99.276;2023-11-21T08:31:12;13.50;99.90
13833;DHT22;6987;19.472;-99.276;2023-11-21T08:33:41;13.50;99.90
13833;DHT22;6987;19.472;-99.276;2023-11-21T08:36:10;13.50;99.90
13833;DHT22;6987;19.472;-99.276;2023-11-21T08:38:40;13.50;99.90
13833;DHT22;6987;19.472;-99.276;2023-11-21T08:41:09;13.60;99.90
13833;DHT22;6987;19.472;-99.276;2023-11-21T08:43:39;13.50;99.90
13833;DHT22;6987;19.472;-99.276;2023-11-21T08:46:10;13.50;99.90
13833;DHT22;6987;19.472;-99.276;2023-11-21T08:48:41;13.50;99.90
13833;DHT22;6987;19.472;-99.276;2023-11-21T08:51:11;13.50;99.90
13833;DHT22;6987;19.472;-99.276;2023-11-21T08:53:40;13.40;99.90
13833;DHT22;6987;19.472;-99.276;2023-11-21T08:56:13;13.30;99.90
13833;DHT22;6987;19.472;-99.276;2023-11-21T08:58:43;13.30;99.90
13833;DHT22;6987;19.472;-99.276;2023-11-21T09:01:15;13.30;99.90
13833;DHT22;6987;19.472;-99.276;2023-11-21T09:03:44;13.30;99.90
13833;DHT22;6987;19.472;-99.276;2023-11-21T09:06:14;13.30;99.90
13833;DHT22;6987;19.472;-99.276;2023-11-21T09:08:43;13.20;99.90
13833;DHT22;6987;19.472;-99.276;2023-11-21T09:11:12;13.10;99.90
13833;DHT22;6987;19.472;-99.276;2023-11-21T09:13:42;13.20;99.90
13833;DHT22;6987;19.472;-99.276;2023-11-21T09:16:11;13.10;99.90
13833;DHT22;6987;19.472;-99.276;2023-11-21T09:18:42;13.20;99.90
13833;DHT22;6987;19.472;-99.276;2023-11-21T09:21:12;13.20;99.90
13833;DHT22;6987;19.472;-99.276;2023-11-21T09:23:42;13.20;99.90
13833;DHT22;6987;19.472;-99.276;2023-11-21T09:26:11;13.20;99.90
13833;DHT22;6987;19.472;-99.276;2023-11-21T09:28:43;13.20;99.90
13833;DHT22;6987;19.472;-99.276;2023-11-21T09:31:14;13.10;99.90
13833;DHT22;6987;19.472;-99.276;2023-11-21T09:33:45;13.10;99.90
13833;DHT22;6987;19.472;-99.276;2023-11-21T09:36:15;13.10;99.90
13833;DHT22;6987;19.472;-99.276;2023-11-21T09:38:45;13.10;99.90
13833;DHT22;6987;19.472;-99.276;2023-11-21T09:41:21;13.00;99.90
13833;DHT22;6987;19.472;-99.276;2023-11-21T09:43:55;13.00;99.90
13833;DHT22;6987;19.472;-99.276;2023-11-21T09:46:28;13.00;99.90
13833;DHT22;6987;19.472;-99.276;2023-11-21T09:49:01;13.00;99.90
13833;DHT22;6987;19.472;-99.276;2023-11-21T09:51:35;13.00;99.90
13833;DHT22;6987;19.472;-99.276;2023-11-21T09:54:05;13.00;99.90
13833;DHT22;6987;19.472;-99.276;2023-11-21T09:56:36;12.90;99.90
13833;DHT22;6987;19.472;-99.276;2023-11-21T09:59:06;12.90;99.90
13833;DHT22;6987;19.472;-99.276;2023-11-21T10:01:37;12.90;99.90
13833;DHT22;6987;19.472;-99.276;2023-11-21T10:04:08;13.00;99.90
13833;DHT22;6987;19.472;-99.276;2023-11-21T10:06:39;13.00;99.90
13833;DHT22;6987;19.472;-99.276;2023-11-21T10:09:10;12.90;99.90
13833;DHT22;6987;19.472;-99.276;2023-11-21T10:11:41;12.80;99.90
13833;DHT22;6987;19.472;-99.276;2023-11-21T10:14:12;12.80;99.90
13833;DHT22;6987;19.472;-99.276;2023-11-21T10:16:42;12.80;99.90
13833;DHT22;6987;19.472;-99.276;2023-11-21T10:19:15;12.80;99.90
13833;DHT22;6987;19.472;-99.276;2023-11-21T10:21:45;12.80;99.90
13833;DHT22;6987;19.472;-99.276;2023-11-21T10:24:14;12.80;99.90
13833;DHT22;6987;19.472;-99.276;2023-11-21T10:26:45;12.80;99.90
13833;DHT22;6987;19.472;-99.276;2023-11-21T10:29:15;12.90;99.90
13833;DHT22;6987;19.472;-99.276;2023-11-21T10:31:45;12.90;99.90
13833;DHT22;6987;19.472;-99.276;2023-11-21T10:34:17;12.80;99.90
13833;DHT22;6987;19.472;-99.276;2023-11-21T10:36:46;12.80;99.90
13833;DHT22;6987;19.472;-99.276;2023-11-21T10:39:17;12.90;99.90
13833;DHT22;6987;19.472;-99.276;2023-11-21T10:41:45;12.90;99.90
13833;DHT22;6987;19.472;-99.276;2023-11-21T10:44:15;12.70;99.90
13833;DHT22;6987;19.472;-99.276;2023-11-21T10:46:48;12.70;99.90
13833;DHT22;6987;19.472;-99.276;2023-11-21T10:49:23;12.60;99.90
13833;DHT22;6987;19.472;-99.276;2023-11-21T10:51:54;12.60;99.90
13833;DHT22;6987;19.472;-99.276;2023-11-21T10:54:24;12.60;99.90
13833;DHT22;6987;19.472;-99.276;2023-11-21T10:56:57;12.60;99.90
13833;DHT22;6987;19.472;-99.276;2023-11-21T10:59:29;12.60;99.90
13833;DHT22;6987;19.472;-99.276;2023-11-21T11:01:59;12.60;99.90
13833;DHT22;6987;19.472;-99.276;2023-11-21T11:04:32;12.50;99.90
13833;DHT22;6987;19.472;-99.276;2023-11-21T11:07:06;12.40;99.90
13833;DHT22;6987;19.472;-99.276;2023-11-21T11:09:39;12.40;99.90
13833;DHT22;6987;19.472;-99.276;2023-11-21T11:12:09;12.40;99.90
13833;DHT22;6987;19.472;-99.276;2023-11-21T11:14:41;12.40;99.90
13833;DHT22;6987;19.472;-99.276;2023-11-21T11:17:11;12.40;99.90
13833;DHT22;6987;19.472;-99.276;2023-11-21T11:19:44;12.40;99.90
13833;DHT22;6987;19.472;-99.276;2023-11-21T11:22:23;12.30;99.90
13833;DHT22;6987;19.472;-99.276;2023-11-21T11:25:13;12.30;99.90
13833;DHT22;6987;19.472;-99.276;2023-11-21T11:27:52;12.30;99.90
13833;DHT22;6987;19.472;-99.276;2023-11-21T11:30:31;12.20;99.90
13833;DHT22;6987;19.472;-99.276;2023-11-21T11:33:10;12.10;99.90
13833;DHT22;6987;19.472;-99.276;2023-11-21T11:35:55;12.10;99.90
13833;DHT22;6987;19.472;-99.276;2023-11-21T11:38:31;12.10;99.90
13833;DHT22;6987;19.472;-99.276;2023-11-21T11:41:03;12.00;99.90
13833;DHT22;6987;19.472;-99.276;2023-11-21T11:43:33;12.00;99.90
13833;DHT22;6987;19.472;-99.276;2023-11-21T11:46:11;12.00;99.90
13833;DHT22;6987;19.472;-99.276;2023-11-21T11:48:41;12.00;99.90
13833;DHT22;6987;19.472;-99.276;2023-11-21T11:51:14;12.10;99.90
13833;DHT22;6987;19.472;-99.276;2023-11-21T11:53:45;12.00;99.90
13833;DHT22;6987;19.472;-99.276;2023-11-21T11:56:43;12.10;99.90
13833;DHT22;6987;19.472;-99.276;2023-11-21T11:59:13;12.00;99.90
13833;DHT22;6987;19.472;-99.276;2023-11-21T12:01:45;12.00;99.90
13833;DHT22;6987;19.472;-99.276;2023-11-21T12:04:26;12.00;99.90
13833;DHT22;6987;19.472;-99.276;2023-11-21T12:07:07;12.00;99.90
13833;DHT22;6987;19.472;-99.276;2023-11-21T12:09:37;12.00;99.90
13833;DHT22;6987;19.472;-99.276;2023-11-21T12:12:08;11.90;99.90
13833;DHT22;6987;19.472;-99.276;2023-11-21T12:14:38;11.90;99.90
13833;DHT22;6987;19.472;-99.276;2023-11-21T12:17:07;11.90;99.90
13833;DHT22;6987;19.472;-99.276;2023-11-21T12:19:37;11.80;99.90
13833;DHT22;6987;19.472;-99.276;2023-11-21T12:22:08;11.80;99.90
13833;DHT22;6987;19.472;-99.276;2023-11-21T12:24:37;11.70;99.90
13833;DHT22;6987;19.472;-99.276;2023-11-21T12:27:06;11.70;99.90
13833;DHT22;6987;19.472;-99.276;2023-11-21T12:29:35;11.70;99.90
13833;DHT22;6987;19.472;-99.276;2023-11-21T12:32:05;11.70;99.90
13833;DHT22;6987;19.472;-99.276;2023-11-21T12:34:34;11.60;99.90
13833;DHT22;6987;19.472;-99.276;2023-11-21T12:37:07;11.70;99.90
13833;DHT22;6987;19.472;-99.276;2023-11-21T12:39:37;11.70;99.90
13833;DHT22;6987;19.472;-99.276;2023-11-21T12:42:06;11.80;99.90
13833;DHT22;6987;19.472;-99.276;2023-11-21T12:44:37;11.80;99.90
13833;DHT22;6987;19.472;-99.276;2023-11-21T12:47:08;11.70;99.90
13833;DHT22;6987;19.472;-99.276;2023-11-21T12:49:41;11.60;99.90
13833;DHT22;6987;19.472;-99.276;2023-11-21T12:52:13;11.60;99.90
13833;DHT22;6987;19.472;-99.276;2023-11-21T12:54:42;11.60;99.90
13833;DHT22;6987;19.472;-99.276;2023-11-21T12:57:15;11.60;99.90
13833;DHT22;6987;19.472;-99.276;2023-11-21T12:59:46;11.60;99.90
13833;DHT22;6987;19.472;-99.276;2023-11-21T13:02:16;11.50;99.90
13833;DHT22;6987;19.472;-99.276;2023-11-21T13:04:52;11.50;99.90
13833;DHT22;6987;19.472;-99.276;2023-11-21T13:07:25;11.60;99.90
13833;DHT22;6987;19.472;-99.276;2023-11-21T13:09:55;11.50;99.90
13833;DHT22;6987;19.472;-99.276;2023-11-21T13:12:25;11.50;99.90
13833;DHT22;6987;19.472;-99.276;2023-11-21T13:14:54;11.50;99.90
13833;DHT22;6987;19.472;-99.276;2023-11-21T13:17:26;11.50;99.90
13833;DHT22;6987;19.472;-99.276;2023-11-21T13:19:55;11.50;99.90
13833;DHT22;6987;19.472;-99.276;2023-11-21T13:22:26;11.60;99.90
13833;DHT22;6987;19.472;-99.276;2023-11-21T13:24:55;11.60;99.90
13833;DHT22;6987;19.472;-99.276;2023-11-21T13:27:25;11.60;99.90
13833;DHT22;6987;19.472;-99.276;2023-11-21T13:29:56;11.60;99.90
13833;DHT22;6987;19.472;-99.276;2023-11-21T13:32:26;11.60;99.90
13833;DHT22;6987;19.472;-99.276;2023-11-21T13:34:55;11.70;99.90
13833;DHT22;6987;19.472;-99.276;2023-11-21T13:37:28;11.60;99.90
13833;DHT22;6987;19.472;-99.276;2023-11-21T13:39:59;11.70;99.90
13833;DHT22;6987;19.472;-99.276;2023-11-21T13:42:30;11.70;99.90
13833;DHT22;6987;19.472;-99.276;2023-11-21T13:44:59;11.80;99.90
13833;DHT22;6987;19.472;-99.276;2023-11-21T13:47:29;11.90;99.90
13833;DHT22;6987;19.472;-99.276;2023-11-21T13:49:58;12.00;99.90
13833;DHT22;6987;19.472;-99.276;2023-11-21T13:52:29;12.10;99.90
13833;DHT22;6987;19.472;-99.276;2023-11-21T13:55:00;12.10;99.90
13833;DHT22;6987;19.472;-99.276;2023-11-21T13:57:33;12.20;99.90
13833;DHT22;6987;19.472;-99.276;2023-11-21T14:00:03;12.30;99.90
13833;DHT22;6987;19.472;-99.276;2023-11-21T14:02:37;12.40;99.90
13833;DHT22;6987;19.472;-99.276;2023-11-21T14:05:09;12.40;99.90
13833;DHT22;6987;19.472;-99.276;2023-11-21T14:07:42;12.50;99.90
13833;DHT22;6987;19.472;-99.276;2023-11-21T14:10:14;12.60;99.90
13833;DHT22;6987;19.472;-99.276;2023-11-21T14:12:48;12.70;99.90
13833;DHT22;6987;19.472;-99.276;2023-11-21T14:15:18;12.80;99.90
13833;DHT22;6987;19.472;-99.276;2023-11-21T14:17:47;12.90;99.90
13833;DHT22;6987;19.472;-99.276;2023-11-21T14:20:16;13.00;99.90
13833;DHT22;6987;19.472;-99.276;2023-11-21T14:22:49;13.10;99.90
13833;DHT22;6987;19.472;-99.276;2023-11-21T14:25:18;13.20;99.90
13833;DHT22;6987;19.472;-99.276;2023-11-21T14:27:49;13.30;99.90
13833;DHT22;6987;19.472;-99.276;2023-11-21T14:30:19;13.40;99.90
13833;DHT22;6987;19.472;-99.276;2023-11-21T14:32:49;13.50;99.90
13833;DHT22;6987;19.472;-99.276;2023-11-21T14:35:19;13.70;99.90
13833;DHT22;6987;19.472;-99.276;2023-11-21T14:37:50;13.70;99.90
13833;DHT22;6987;19.472;-99.276;2023-11-21T14:40:19;13.90;99.90
13833;DHT22;6987;19.472;-99.276;2023-11-21T14:42:51;14.00;99.90
13833;DHT22;6987;19.472;-99.276;2023-11-21T14:45:24;14.10;99.90
13833;DHT22;6987;19.472;-99.276;2023-11-21T14:47:53;14.20;99.90
13833;DHT22;6987;19.472;-99.276;2023-11-21T14:50:33;14.40;99.90
13833;DHT22;6987;19.472;-99.276;2023-11-21T14:53:20;14.50;99.90
13833;DHT22;6987;19.472;-99.276;2023-11-21T14:56:10;14.60;99.90
13833;DHT22;6987;19.472;-99.276;2023-11-21T14:58:48;14.70;99.90
13833;DHT22;6987;19.472;-99.276;2023-11-21T15:01:17;14.80;99.90
13833;DHT22;6987;19.472;-99.276;2023-11-21T15:03:53;14.90;99.90
13833;DHT22;6987;19.472;-99.276;2023-11-21T15:06:22;15.00;99.90
13833;DHT22;6987;19.472;-99.276;2023-11-21T15:08:58;15.10;99.90
13833;DHT22;6987;19.472;-99.276;2023-11-21T15:11:43;15.20;99.90
13833;DHT22;6987;19.472;-99.276;2023-11-21T15:14:14;15.30;99.90
13833;DHT22;6987;19.472;-99.276;2023-11-21T15:16:48;15.30;99.90
13833;DHT22;6987;19.472;-99.276;2023-11-21T15:19:20;15.40;99.90
13833;DHT22;6987;19.472;-99.276;2023-11-21T15:21:53;15.50;99.90
13833;DHT22;6987;19.472;-99.276;2023-11-21T15:24:25;15.50;99.90
13833;DHT22;6987;19.472;-99.276;2023-11-21T15:26:54;15.50;99.90
13833;DHT22;6987;19.472;-99.276;2023-11-21T15:29:23;15.60;99.90
13833;DHT22;6987;19.472;-99.276;2023-11-21T15:31:53;15.70;99.90
13833;DHT22;6987;19.472;-99.276;2023-11-21T15:34:23;15.80;99.90
13833;DHT22;6987;19.472;-99.276;2023-11-21T15:36:53;15.80;99.90